sensor_id;sensor_type;location;lat;lon;timestamp;temperature;humidity
23703;DHT22;12030;50.376;8.762;2022-07-30T00:02:17;17.40;99.90
23703;DHT22;12030;50.376;8.762;2022-07-30T00:04:43;17.40;99.90
23703;DHT22;12030;50.376;8.762;2022-07-30T00:07:09;17.40;99.90
23703;DHT22;12030;50.376;8.762;2022-07-30T00:09:34;17.30;99.90
23703;DHT22;12030;50.376;8.762;2022-07-30T00:12:00;17.30;99.90
23703;DHT22;12030;50.376;8.762;2022-07-30T00:14:26;17.30;99.90
23703;DHT22;12030;50.376;8.762;2022-07-30T00:16:52;17.20;99.90
23703;DHT22;12030;50.376;8.762;2022-07-30T00:19:18;17.20;99.90
23703;DHT22;12030;50.376;8.762;2022-07-30T00:21:43;17.20;99.90
23703;DHT22;12030;50.376;8.762;2022-07-30T00:24:09;17.10;99.90
23703;DHT22;12030;50.376;8.762;2022-07-30T00:26:35;17.20;99.90
23703;DHT22;12030;50.376;8.762;2022-07-30T00:29:00;17.20;99.90
23703;DHT22;12030;50.376;8.762;2022-07-30T00:31:26;17.10;99.90
23703;DHT22;12030;50.376;8.762;2022-07-30T00:33:52;17.10;99.90
23703;DHT22;12030;50.376;8.762;2022-07-30T00:36:17;17.00;99.90
23703;DHT22;12030;50.376;8.762;2022-07-30T00:38:43;17.00;99.90
23703;DHT22;12030;50.376;8.762;2022-07-30T00:41:08;16.90;99.90
23703;DHT22;12030;50.376;8.762;2022-07-30T00:43:34;16.90;99.90
23703;DHT22;12030;50.376;8.762;2022-07-30T00:45:59;16.90;99.90
23703;DHT22;12030;50.376;8.762;2022-07-30T00:48:25;16.80;99.90
23703;DHT22;12030;50.376;8.762;2022-07-30T00:50:50;16.70;99.90
23703;DHT22;12030;50.376;8.762;2022-07-30T00:53:16;16.70;99.90
23703;DHT22;12030;50.376;8.762;2022-07-30T00:55:41;16.60;99.90
23703;DHT22;12030;50.376;8.762;2022-07-30T00:58:07;16.60;99.90
23703;DHT22;12030;50.376;8.762;2022-07-30T01:00:32;16.60;99.90
23703;DHT22;12030;50.376;8.762;2022-07-30T01:02:58;16.50;99.90
23703;DHT22;12030;50.376;8.762;2022-07-30T01:05:23;16.30;99.90
23703;DHT22;12030;50.376;8.762;2022-07-30T01:07:49;16.30;99.90
23703;DHT22;12030;50.376;8.762;2022-07-30T01:10:16;16.20;99.90
23703;DHT22;12030;50.376;8.762;2022-07-30T01:12:42;16.10;99.90
23703;DHT22;12030;50.376;8.762;2022-07-30T01:15:09;16.10;99.90
23703;DHT22;12030;50.376;8.762;2022-07-30T01:17:35;16.10;99.90
23703;DHT22;12030;50.376;8.762;2022-07-30T01:20:05;15.90;99.90
23703;DHT22;12030;50.376;8.762;2022-07-30T01:27:57;15.80;99.90
23703;DHT22;12030;50.376;8.762;2022-07-30T01:30:26;15.80;99.90
23703;DHT22;12030;50.376;8.762;2022-07-30T01:32:54;15.80;99.90
23703;DHT22;12030;50.376;8.762;2022-07-30T01:35:21;15.80;99.90
23703;DHT22;12030;50.376;8.762;2022-07-30T01:37:50;15.70;99.90
23703;DHT22;12030;50.376;8.762;2022-07-30T01:40:18;15.70;99.90
23703;DHT22;12030;50.376;8.762;2022-07-30T01:42:45;15.70;99.90
23703;DHT22;12030;50.376;8.762;2022-07-30T01:45:13;15.70;99.90
23703;DHT22;12030;50.376;8.762;2022-07-30T01:47:41;15.60;99.90
23703;DHT22;12030;50.376;8.762;2022-07-30T01:50:11;15.60;99.90
23703;DHT22;12030;50.376;8.762;2022-07-30T01:52:42;15.50;99.90
23703;DHT22;12030;50.376;8.762;2022-07-30T01:55:12;15.40;99.90
23703;DHT22;12030;50.376;8.762;2022-07-30T01:57:38;15.30;99.90
23703;DHT22;12030;50.376;8.762;2022-07-30T02:00:05;15.30;99.90
23703;DHT22;12030;50.376;8.762;2022-07-30T02:02:34;15.30;99.90
23703;DHT22;12030;50.376;8.762;2022-07-30T02:05:00;15.30;99.90
23703;DHT22;12030;50.376;8.762;2022-07-30T02:10:04;15.40;99.90
23703;DHT22;12030;50.376;8.762;2022-07-30T02:12:31;15.30;99.90
23703;DHT22;12030;50.376;8.762;2022-07-30T02:17:59;15.40;99.90
23703;DHT22;12030;50.376;8.762;2022-07-30T02:20:28;15.40;99.90
23703;DHT22;12030;50.376;8.762;2022-07-30T02:22:59;15.40;99.90
23703;DHT22;12030;50.376;8.762;2022-07-30T02:25:26;15.40;99.90
23703;DHT22;12030;50.376;8.762;2022-07-30T02:27:55;15.40;99.90
23703;DHT22;12030;50.376;8.762;2022-07-30T02:30:24;15.40;99.90
23703;DHT22;12030;50.376;8.762;2022-07-30T02:32:54;15.30;99.90
23703;DHT22;12030;50.376;8.762;2022-07-30T02:35:25;15.30;99.90
23703;DHT22;12030;50.376;8.762;2022-07-30T02:37:52;15.30;99.90
23703;DHT22;12030;50.376;8.762;2022-07-30T02:40:19;15.20;99.90
23703;DHT22;12030;50.376;8.762;2022-07-30T02:42:48;15.20;99.90
23703;DHT22;12030;50.376;8.762;2022-07-30T02:45:18;15.20;99.90
23703;DHT22;12030;50.376;8.762;2022-07-30T02:47:46;15.10;99.90
23703;DHT22;12030;50.376;8.762;2022-07-30T02:50:13;15.00;99.90
23703;DHT22;12030;50.376;8.762;2022-07-30T02:52:40;15.00;99.90
23703;DHT22;12030;50.376;8.762;2022-07-30T02:55:08;15.00;99.90
23703;DHT22;12030;50.376;8.762;2022-07-30T02:57:36;14.90;99.90
23703;DHT22;12030;50.376;8.762;2022-07-30T03:00:04;14.90;99.90
23703;DHT22;12030;50.376;8.762;2022-07-30T03:02:32;14.90;99.90
23703;DHT22;12030;50.376;8.762;2022-07-30T03:05:00;14.90;99.90
23703;DHT22;12030;50.376;8.762;2022-07-30T03:07:26;14.80;99.90
23703;DHT22;12030;50.376;8.762;2022-07-30T03:09:55;14.70;99.90
23703;DHT22;12030;50.376;8.762;2022-07-30T03:12:21;14.70;99.90
23703;DHT22;12030;50.376;8.762;2022-07-30T03:14:48;14.70;99.90
23703;DHT22;12030;50.376;8.762;2022-07-30T03:17:15;14.70;99.90
23703;DHT22;12030;50.376;8.762;2022-07-30T03:19:41;14.70;99.90
23703;DHT22;12030;50.376;8.762;2022-07-30T03:22:10;14.80;99.90
23703;DHT22;12030;50.376;8.762;2022-07-30T03:24:37;14.80;99.90
23703;DHT22;12030;50.376;8.762;2022-07-30T03:27:05;14.80;99.90
23703;DHT22;12030;50.376;8.762;2022-07-30T03:29:32;14.70;99.90
23703;DHT22;12030;50.376;8.762;2022-07-30T03:31:59;14.70;99.90
23703;DHT22;12030;50.376;8.762;2022-07-30T03:34:25;14.70;99.90
23703;DHT22;12030;50.376;8.762;2022-07-30T03:36:51;14.80;99.90
23703;DHT22;12030;50.376;8.762;2022-07-30T03:39:18;14.80;99.90
23703;DHT22;12030;50.376;8.762;2022-07-30T03:41:45;14.80;99.90
23703;DHT22;12030;50.376;8.762;2022-07-30T03:44:11;14.80;99.90
23703;DHT22;12030;50.376;8.762;2022-07-30T03:46:37;14.80;99.90
23703;DHT22;12030;50.376;8.762;2022-07-30T03:49:03;14.70;99.90
23703;DHT22;12030;50.376;8.762;2022-07-30T03:51:31;14.70;99.90
23703;DHT22;12030;50.376;8.762;2022-07-30T03:53:57;14.60;99.90
23703;DHT22;12030;50.376;8.762;2022-07-30T03:56:23;14.60;99.90
23703;DHT22;12030;50.376;8.762;2022-07-30T03:58:49;14.70;99.90
23703;DHT22;12030;50.376;8.762;2022-07-30T04:01:14;14.60;99.90
23703;DHT22;12030;50.376;8.762;2022-07-30T04:03:40;14.70;99.90
23703;DHT22;12030;50.376;8.762;2022-07-30T04:06:05;14.80;99.90
23703;DHT22;12030;50.376;8.762;2022-07-30T04:08:31;14.80;99.90
23703;DHT22;12030;50.376;8.762;2022-07-30T04:10:57;14.80;99.90
23703;DHT22;12030;50.376;8.762;2022-07-30T04:13:23;14.80;99.90
23703;DHT22;12030;50.376;8.762;2022-07-30T04:15:54;14.80;99.90
23703;DHT22;12030;50.376;8.762;2022-07-30T04:18:21;14.80;99.90
23703;DHT22;12030;50.376;8.762;2022-07-30T04:20:50;14.80;99.90
23703;DHT22;12030;50.376;8.762;2022-07-30T04:23:16;14.90;99.90
23703;DHT22;12030;50.376;8.762;2022-07-30T04:25:42;15.00;99.90
23703;DHT22;12030;50.376;8.762;2022-07-30T04:28:09;15.00;99.90
23703;DHT22;12030;50.376;8.762;2022-07-30T04:30:36;15.00;99.90
23703;DHT22;12030;50.376;8.762;2022-07-30T04:33:03;15.00;99.90
23703;DHT22;12030;50.376;8.762;2022-07-30T04:35:30;15.00;99.90
23703;DHT22;12030;50.376;8.762;2022-07-30T04:37:56;15.10;99.90
23703;DHT22;12030;50.376;8.762;2022-07-30T04:40:22;15.10;99.90
23703;DHT22;12030;50.376;8.762;2022-07-30T04:42:48;15.10;99.90
23703;DHT22;12030;50.376;8.762;2022-07-30T04:45:13;15.10;99.90
23703;DHT22;12030;50.376;8.762;2022-07-30T04:47:39;15.00;99.90
23703;DHT22;12030;50.376;8.762;2022-07-30T04:50:06;15.10;99.90
23703;DHT22;12030;50.376;8.762;2022-07-30T04:52:32;15.20;99.90
23703;DHT22;12030;50.376;8.762;2022-07-30T04:55:01;15.30;99.90
23703;DHT22;12030;50.376;8.762;2022-07-30T04:57:29;15.40;99.90
23703;DHT22;12030;50.376;8.762;2022-07-30T04:59:56;15.40;99.90
23703;DHT22;12030;50.376;8.762;2022-07-30T05:02:23;15.50;99.90
23703;DHT22;12030;50.376;8.762;2022-07-30T05:04:49;15.60;99.90
23703;DHT22;12030;50.376;8.762;2022-07-30T05:07:15;15.60;99.90
23703;DHT22;12030;50.376;8.762;2022-07-30T05:09:43;15.60;99.90
23703;DHT22;12030;50.376;8.762;2022-07-30T05:12:09;15.70;99.90
23703;DHT22;12030;50.376;8.762;2022-07-30T05:14:34;15.70;99.90
23703;DHT22;12030;50.376;8.762;2022-07-30T05:17:00;15.70;99.90
23703;DHT22;12030;50.376;8.762;2022-07-30T05:19:25;15.80;99.90
23703;DHT22;12030;50.376;8.762;2022-07-30T05:21:51;15.90;99.90
23703;DHT22;12030;50.376;8.762;2022-07-30T05:24:17;16.00;99.90
23703;DHT22;12030;50.376;8.762;2022-07-30T05:26:43;16.10;99.90
23703;DHT22;12030;50.376;8.762;2022-07-30T05:29:08;16.30;99.90
23703;DHT22;12030;50.376;8.762;2022-07-30T05:31:34;16.40;99.90
23703;DHT22;12030;50.376;8.762;2022-07-30T05:34:00;16.40;99.90
23703;DHT22;12030;50.376;8.762;2022-07-30T05:36:25;16.50;99.90
23703;DHT22;12030;50.376;8.762;2022-07-30T05:38:51;16.60;99.90
23703;DHT22;12030;50.376;8.762;2022-07-30T05:41:17;16.60;99.90
23703;DHT22;12030;50.376;8.762;2022-07-30T05:43:42;16.60;99.90
23703;DHT22;12030;50.376;8.762;2022-07-30T05:46:08;16.70;99.90
23703;DHT22;12030;50.376;8.762;2022-07-30T05:48:33;16.80;99.90
23703;DHT22;12030;50.376;8.762;2022-07-30T05:51:03;16.90;99.90
23703;DHT22;12030;50.376;8.762;2022-07-30T05:53:29;17.00;99.90
23703;DHT22;12030;50.376;8.762;2022-07-30T05:55:55;17.10;99.90
23703;DHT22;12030;50.376;8.762;2022-07-30T05:58:20;17.20;99.90
23703;DHT22;12030;50.376;8.762;2022-07-30T06:00:46;17.30;99.90
23703;DHT22;12030;50.376;8.762;2022-07-30T06:03:12;17.30;99.90
23703;DHT22;12030;50.376;8.762;2022-07-30T06:05:37;17.40;99.90
23703;DHT22;12030;50.376;8.762;2022-07-30T06:08:03;17.50;99.90
23703;DHT22;12030;50.376;8.762;2022-07-30T06:10:29;17.60;99.90
23703;DHT22;12030;50.376;8.762;2022-07-30T06:12:55;17.70;99.90
23703;DHT22;12030;50.376;8.762;2022-07-30T06:15:20;17.80;99.90
23703;DHT22;12030;50.376;8.762;2022-07-30T06:17:47;17.90;99.90
23703;DHT22;12030;50.376;8.762;2022-07-30T06:20:14;18.00;99.90
23703;DHT22;12030;50.376;8.762;2022-07-30T06:22:41;18.10;99.90
23703;DHT22;12030;50.376;8.762;2022-07-30T06:25:08;18.20;99.90
23703;DHT22;12030;50.376;8.762;2022-07-30T06:27:34;18.40;99.90
23703;DHT22;12030;50.376;8.762;2022-07-30T06:30:02;18.40;99.90
23703;DHT22;12030;50.376;8.762;2022-07-30T06:32:28;18.50;99.90
23703;DHT22;12030;50.376;8.762;2022-07-30T06:34:54;18.60;99.90
23703;DHT22;12030;50.376;8.762;2022-07-30T06:37:19;18.70;99.90
23703;DHT22;12030;50.376;8.762;2022-07-30T06:39:45;18.80;99.90
23703;DHT22;12030;50.376;8.762;2022-07-30T06:42:10;18.90;99.90
23703;DHT22;12030;50.376;8.762;2022-07-30T06:44:36;19.00;99.90
23703;DHT22;12030;50.376;8.762;2022-07-30T06:47:01;19.00;99.90
23703;DHT22;12030;50.376;8.762;2022-07-30T06:49:30;19.10;99.90
23703;DHT22;12030;50.376;8.762;2022-07-30T06:51:55;19.10;99.90
23703;DHT22;12030;50.376;8.762;2022-07-30T06:54:21;19.30;99.90
23703;DHT22;12030;50.376;8.762;2022-07-30T06:56:47;19.30;99.90
23703;DHT22;12030;50.376;8.762;2022-07-30T06:59:12;19.30;99.90
23703;DHT22;12030;50.376;8.762;2022-07-30T07:01:38;19.30;99.90
23703;DHT22;12030;50.376;8.762;2022-07-30T07:04:04;19.40;99.90
23703;DHT22;12030;50.376;8.762;2022-07-30T07:06:29;19.30;99.90
23703;DHT22;12030;50.376;8.762;2022-07-30T07:08:55;19.30;99.90
23703;DHT22;12030;50.376;8.762;2022-07-30T07:11:20;19.30;99.90
23703;DHT22;12030;50.376;8.762;2022-07-30T07:13:45;19.30;99.90
23703;DHT22;12030;50.376;8.762;2022-07-30T07:16:11;19.30;99.90
23703;DHT22;12030;50.376;8.762;2022-07-30T07:18:37;19.30;99.90
23703;DHT22;12030;50.376;8.762;2022-07-30T07:21:02;19.40;99.90
23703;DHT22;12030;50.376;8.762;2022-07-30T07:23:28;19.30;99.90
23703;DHT22;12030;50.376;8.762;2022-07-30T07:25:54;19.30;99.90
23703;DHT22;12030;50.376;8.762;2022-07-30T07:28:20;19.30;99.90
23703;DHT22;12030;50.376;8.762;2022-07-30T07:30:46;19.30;99.90
23703;DHT22;12030;50.376;8.762;2022-07-30T07:33:11;19.40;99.90
23703;DHT22;12030;50.376;8.762;2022-07-30T07:35:37;19.60;99.90
23703;DHT22;12030;50.376;8.762;2022-07-30T07:38:03;19.80;99.90
23703;DHT22;12030;50.376;8.762;2022-07-30T07:40:28;20.00;99.90
23703;DHT22;12030;50.376;8.762;2022-07-30T07:42:54;20.10;99.90
23703;DHT22;12030;50.376;8.762;2022-07-30T07:45:19;20.30;99.90
23703;DHT22;12030;50.376;8.762;2022-07-30T07:47:46;20.40;99.90
23703;DHT22;12030;50.376;8.762;2022-07-30T07:50:17;20.50;99.90
23703;DHT22;12030;50.376;8.762;2022-07-30T07:52:43;20.60;99.90
23703;DHT22;12030;50.376;8.762;2022-07-30T07:55:09;20.70;99.90
23703;DHT22;12030;50.376;8.762;2022-07-30T07:57:39;20.80;99.90
23703;DHT22;12030;50.376;8.762;2022-07-30T08:00:06;20.90;99.90
23703;DHT22;12030;50.376;8.762;2022-07-30T08:02:32;21.00;99.90
23703;DHT22;12030;50.376;8.762;2022-07-30T08:04:58;21.00;99.90
23703;DHT22;12030;50.376;8.762;2022-07-30T08:07:23;21.20;99.90
23703;DHT22;12030;50.376;8.762;2022-07-30T08:09:49;21.20;99.90
23703;DHT22;12030;50.376;8.762;2022-07-30T08:12:14;21.40;99.90
23703;DHT22;12030;50.376;8.762;2022-07-30T08:14:40;21.40;99.90
23703;DHT22;12030;50.376;8.762;2022-07-30T08:17:05;21.50;99.90
23703;DHT22;12030;50.376;8.762;2022-07-30T08:19:31;21.70;99.90
23703;DHT22;12030;50.376;8.762;2022-07-30T08:21:56;21.70;99.90
23703;DHT22;12030;50.376;8.762;2022-07-30T08:24:24;21.80;99.90
23703;DHT22;12030;50.376;8.762;2022-07-30T08:26:49;22.00;99.90
23703;DHT22;12030;50.376;8.762;2022-07-30T08:29:15;22.00;99.90
23703;DHT22;12030;50.376;8.762;2022-07-30T08:31:41;22.20;99.90
23703;DHT22;12030;50.376;8.762;2022-07-30T08:34:06;22.20;99.90
23703;DHT22;12030;50.376;8.762;2022-07-30T08:36:32;22.30;99.90
23703;DHT22;12030;50.376;8.762;2022-07-30T08:38:57;22.30;99.90
23703;DHT22;12030;50.376;8.762;2022-07-30T08:41:23;22.40;99.90
23703;DHT22;12030;50.376;8.762;2022-07-30T08:43:50;22.50;99.90
23703;DHT22;12030;50.376;8.762;2022-07-30T08:46:17;22.60;99.90
23703;DHT22;12030;50.376;8.762;2022-07-30T08:48:43;22.70;99.90
23703;DHT22;12030;50.376;8.762;2022-07-30T08:51:09;22.80;99.90
23703;DHT22;12030;50.376;8.762;2022-07-30T08:53:35;22.90;99.90
23703;DHT22;12030;50.376;8.762;2022-07-30T08:56:01;22.90;99.90
23703;DHT22;12030;50.376;8.762;2022-07-30T08:58:29;23.00;99.90
23703;DHT22;12030;50.376;8.762;2022-07-30T09:00:55;23.20;99.90
23703;DHT22;12030;50.376;8.762;2022-07-30T09:03:21;23.20;99.90
23703;DHT22;12030;50.376;8.762;2022-07-30T09:05:47;23.40;99.90
23703;DHT22;12030;50.376;8.762;2022-07-30T09:08:12;23.50;99.90
23703;DHT22;12030;50.376;8.762;2022-07-30T09:10:38;23.50;99.90
23703;DHT22;12030;50.376;8.762;2022-07-30T09:13:04;23.50;99.90
23703;DHT22;12030;50.376;8.762;2022-07-30T09:15:30;23.50;99.90
23703;DHT22;12030;50.376;8.762;2022-07-30T09:18:01;23.60;99.90
23703;DHT22;12030;50.376;8.762;2022-07-30T09:20:32;23.70;99.90
23703;DHT22;12030;50.376;8.762;2022-07-30T09:23:03;23.70;98.00
23703;DHT22;12030;50.376;8.762;2022-07-30T09:25:38;23.80;99.90
23703;DHT22;12030;50.376;8.762;2022-07-30T09:28:06;24.00;98.30
23703;DHT22;12030;50.376;8.762;2022-07-30T09:30:49;24.10;97.80
23703;DHT22;12030;50.376;8.762;2022-07-30T09:33:29;24.20;98.10
23703;DHT22;12030;50.376;8.762;2022-07-30T09:35:55;24.20;94.40
23703;DHT22;12030;50.376;8.762;2022-07-30T09:38:21;24.30;97.20
23703;DHT22;12030;50.376;8.762;2022-07-30T09:40:55;24.40;95.10
23703;DHT22;12030;50.376;8.762;2022-07-30T09:43:20;24.40;94.50
23703;DHT22;12030;50.376;8.762;2022-07-30T09:45:54;24.60;95.30
23703;DHT22;12030;50.376;8.762;2022-07-30T09:48:24;24.50;93.90
23703;DHT22;12030;50.376;8.762;2022-07-30T09:50:50;24.60;94.40
23703;DHT22;12030;50.376;8.762;2022-07-30T09:53:17;24.80;93.30
23703;DHT22;12030;50.376;8.762;2022-07-30T09:55:43;24.80;95.00
23703;DHT22;12030;50.376;8.762;2022-07-30T09:58:10;23.80;95.70
23703;DHT22;12030;50.376;8.762;2022-07-30T10:00:36;25.20;95.70
23703;DHT22;12030;50.376;8.762;2022-07-30T10:03:20;25.50;96.00
23703;DHT22;12030;50.376;8.762;2022-07-30T10:05:54;25.50;94.60
23703;DHT22;12030;50.376;8.762;2022-07-30T10:08:40;25.40;93.30
23703;DHT22;12030;50.376;8.762;2022-07-30T10:11:12;25.30;94.30
23703;DHT22;12030;50.376;8.762;2022-07-30T10:13:39;25.20;92.30
23703;DHT22;12030;50.376;8.762;2022-07-30T10:16:05;25.10;92.30
23703;DHT22;12030;50.376;8.762;2022-07-30T10:18:31;25.10;93.10
23703;DHT22;12030;50.376;8.762;2022-07-30T10:20:58;24.90;94.10
23703;DHT22;12030;50.376;8.762;2022-07-30T10:23:26;24.60;92.40
23703;DHT22;12030;50.376;8.762;2022-07-30T10:25:56;24.70;93.00
23703;DHT22;12030;50.376;8.762;2022-07-30T10:28:23;24.70;94.70
23703;DHT22;12030;50.376;8.762;2022-07-30T10:30:49;24.60;94.40
23703;DHT22;12030;50.376;8.762;2022-07-30T10:33:15;24.50;93.90
23703;DHT22;12030;50.376;8.762;2022-07-30T10:35:41;24.30;93.20
23703;DHT22;12030;50.376;8.762;2022-07-30T10:38:10;24.30;94.80
23703;DHT22;12030;50.376;8.762;2022-07-30T10:40:56;24.20;94.20
23703;DHT22;12030;50.376;8.762;2022-07-30T10:43:54;24.10;93.90
23703;DHT22;12030;50.376;8.762;2022-07-30T10:46:53;24.20;94.30
23703;DHT22;12030;50.376;8.762;2022-07-30T10:49:20;24.30;94.50
23703;DHT22;12030;50.376;8.762;2022-07-30T10:51:48;24.30;95.00
23703;DHT22;12030;50.376;8.762;2022-07-30T10:54:41;24.30;95.00
23703;DHT22;12030;50.376;8.762;2022-07-30T11:02:17;25.00;96.20
23703;DHT22;12030;50.376;8.762;2022-07-30T11:04:43;25.00;95.90
23703;DHT22;12030;50.376;8.762;2022-07-30T11:09:52;24.70;94.40
23703;DHT22;12030;50.376;8.762;2022-07-30T11:15:11;24.70;95.80
23703;DHT22;12030;50.376;8.762;2022-07-30T11:18:01;24.80;94.90
23703;DHT22;12030;50.376;8.762;2022-07-30T11:20:28;25.20;94.50
23703;DHT22;12030;50.376;8.762;2022-07-30T11:23:08;25.30;93.60
23703;DHT22;12030;50.376;8.762;2022-07-30T11:27:59;25.60;93.30
23703;DHT22;12030;50.376;8.762;2022-07-30T11:35:43;25.70;92.70
23703;DHT22;12030;50.376;8.762;2022-07-30T11:38:12;25.60;94.00
23703;DHT22;12030;50.376;8.762;2022-07-30T11:43:30;25.90;94.30
23703;DHT22;12030;50.376;8.762;2022-07-30T11:46:04;26.00;93.30
23703;DHT22;12030;50.376;8.762;2022-07-30T11:48:31;26.10;93.80
23703;DHT22;12030;50.376;8.762;2022-07-30T11:50:57;26.20;93.10
23703;DHT22;12030;50.376;8.762;2022-07-30T11:53:23;26.40;93.30
23703;DHT22;12030;50.376;8.762;2022-07-30T11:56:00;26.60;95.00
23703;DHT22;12030;50.376;8.762;2022-07-30T11:58:39;26.70;92.90
23703;DHT22;12030;50.376;8.762;2022-07-30T12:01:15;26.70;91.40
23703;DHT22;12030;50.376;8.762;2022-07-30T12:03:42;26.60;91.50
23703;DHT22;12030;50.376;8.762;2022-07-30T12:06:13;26.70;90.80
23703;DHT22;12030;50.376;8.762;2022-07-30T12:08:45;26.80;91.70
23703;DHT22;12030;50.376;8.762;2022-07-30T12:11:11;27.20;93.50
23703;DHT22;12030;50.376;8.762;2022-07-30T12:13:38;27.30;92.30
23703;DHT22;12030;50.376;8.762;2022-07-30T12:16:08;27.30;91.80
23703;DHT22;12030;50.376;8.762;2022-07-30T12:18:34;27.10;93.10
23703;DHT22;12030;50.376;8.762;2022-07-30T12:21:02;26.80;91.10
23703;DHT22;12030;50.376;8.762;2022-07-30T12:23:29;27.00;90.60
23703;DHT22;12030;50.376;8.762;2022-07-30T12:25:55;27.30;91.70
23703;DHT22;12030;50.376;8.762;2022-07-30T12:28:23;27.70;92.10
23703;DHT22;12030;50.376;8.762;2022-07-30T12:30:51;27.30;88.70
23703;DHT22;12030;50.376;8.762;2022-07-30T12:33:17;27.30;89.70
23703;DHT22;12030;50.376;8.762;2022-07-30T12:35:44;27.30;89.90
23703;DHT22;12030;50.376;8.762;2022-07-30T12:38:10;27.50;88.80
23703;DHT22;12030;50.376;8.762;2022-07-30T12:41:04;27.80;91.20
23703;DHT22;12030;50.376;8.762;2022-07-30T12:43:51;28.10;88.00
23703;DHT22;12030;50.376;8.762;2022-07-30T12:46:22;28.30;86.60
23703;DHT22;12030;50.376;8.762;2022-07-30T12:48:56;26.90;86.20
23703;DHT22;12030;50.376;8.762;2022-07-30T12:51:24;28.60;84.20
23703;DHT22;12030;50.376;8.762;2022-07-30T12:53:51;28.40;84.60
23703;DHT22;12030;50.376;8.762;2022-07-30T12:56:25;28.20;89.30
23703;DHT22;12030;50.376;8.762;2022-07-30T12:58:51;27.90;90.00
23703;DHT22;12030;50.376;8.762;2022-07-30T13:01:17;28.00;84.80
23703;DHT22;12030;50.376;8.762;2022-07-30T13:03:43;28.50;90.30
23703;DHT22;12030;50.376;8.762;2022-07-30T13:06:37;28.90;91.30
23703;DHT22;12030;50.376;8.762;2022-07-30T13:09:05;29.10;85.10
23703;DHT22;12030;50.376;8.762;2022-07-30T13:14:02;29.00;81.70
23703;DHT22;12030;50.376;8.762;2022-07-30T13:16:31;29.00;80.20
23703;DHT22;12030;50.376;8.762;2022-07-30T13:18:57;29.40;84.90
23703;DHT22;12030;50.376;8.762;2022-07-30T13:21:23;29.50;82.00
23703;DHT22;12030;50.376;8.762;2022-07-30T13:23:48;29.90;86.90
23703;DHT22;12030;50.376;8.762;2022-07-30T13:26:14;29.60;81.50
23703;DHT22;12030;50.376;8.762;2022-07-30T13:28:40;29.40;79.10
23703;DHT22;12030;50.376;8.762;2022-07-30T13:31:06;29.30;80.90
23703;DHT22;12030;50.376;8.762;2022-07-30T13:33:33;29.60;81.60
23703;DHT22;12030;50.376;8.762;2022-07-30T13:35:59;29.90;80.90
23703;DHT22;12030;50.376;8.762;2022-07-30T13:38:25;30.30;81.70
23703;DHT22;12030;50.376;8.762;2022-07-30T13:40:51;30.50;82.40
23703;DHT22;12030;50.376;8.762;2022-07-30T13:43:18;30.00;78.10
23703;DHT22;12030;50.376;8.762;2022-07-30T13:45:43;29.70;77.70
23703;DHT22;12030;50.376;8.762;2022-07-30T13:48:09;29.50;79.20
23703;DHT22;12030;50.376;8.762;2022-07-30T13:50:35;29.10;78.70
23703;DHT22;12030;50.376;8.762;2022-07-30T13:53:01;28.80;81.60
23703;DHT22;12030;50.376;8.762;2022-07-30T13:55:26;28.60;82.20
23703;DHT22;12030;50.376;8.762;2022-07-30T13:57:52;28.10;75.10
23703;DHT22;12030;50.376;8.762;2022-07-30T14:00:17;28.20;75.50
23703;DHT22;12030;50.376;8.762;2022-07-30T14:02:43;28.90;80.70
23703;DHT22;12030;50.376;8.762;2022-07-30T14:05:08;29.30;82.50
23703;DHT22;12030;50.376;8.762;2022-07-30T14:07:35;29.90;78.10
23703;DHT22;12030;50.376;8.762;2022-07-30T14:10:02;30.20;78.60
23703;DHT22;12030;50.376;8.762;2022-07-30T14:12:28;30.30;78.40
23703;DHT22;12030;50.376;8.762;2022-07-30T14:14:54;30.20;76.40
23703;DHT22;12030;50.376;8.762;2022-07-30T14:17:19;30.60;76.90
23703;DHT22;12030;50.376;8.762;2022-07-30T14:19:45;30.40;77.40
23703;DHT22;12030;50.376;8.762;2022-07-30T14:22:11;30.80;76.30
23703;DHT22;12030;50.376;8.762;2022-07-30T14:24:37;30.80;75.90
23703;DHT22;12030;50.376;8.762;2022-07-30T14:27:02;30.80;73.60
23703;DHT22;12030;50.376;8.762;2022-07-30T14:29:28;31.10;79.50
23703;DHT22;12030;50.376;8.762;2022-07-30T14:31:54;31.30;73.50
23703;DHT22;12030;50.376;8.762;2022-07-30T14:34:19;31.10;71.60
23703;DHT22;12030;50.376;8.762;2022-07-30T14:36:45;31.20;73.50
23703;DHT22;12030;50.376;8.762;2022-07-30T14:39:10;33.10;70.60
23703;DHT22;12030;50.376;8.762;2022-07-30T14:41:36;30.40;72.00
23703;DHT22;12030;50.376;8.762;2022-07-30T14:44:03;30.60;72.50
23703;DHT22;12030;50.376;8.762;2022-07-30T14:46:29;30.60;69.40
23703;DHT22;12030;50.376;8.762;2022-07-30T14:48:54;30.70;70.00
23703;DHT22;12030;50.376;8.762;2022-07-30T14:51:20;30.80;72.90
23703;DHT22;12030;50.376;8.762;2022-07-30T14:53:46;30.80;75.70
23703;DHT22;12030;50.376;8.762;2022-07-30T14:56:12;30.80;73.70
23703;DHT22;12030;50.376;8.762;2022-07-30T14:58:38;30.40;70.00
23703;DHT22;12030;50.376;8.762;2022-07-30T15:01:03;30.50;72.80
23703;DHT22;12030;50.376;8.762;2022-07-30T15:03:33;30.60;71.30
23703;DHT22;12030;50.376;8.762;2022-07-30T15:05:59;30.80;70.30
23703;DHT22;12030;50.376;8.762;2022-07-30T15:08:24;30.70;69.90
23703;DHT22;12030;50.376;8.762;2022-07-30T15:10:50;30.70;72.40
23703;DHT22;12030;50.376;8.762;2022-07-30T15:13:15;30.90;72.20
23703;DHT22;12030;50.376;8.762;2022-07-30T15:15:41;30.70;70.10
23703;DHT22;12030;50.376;8.762;2022-07-30T15:18:06;30.60;70.10
23703;DHT22;12030;50.376;8.762;2022-07-30T15:20:32;30.50;70.10
23703;DHT22;12030;50.376;8.762;2022-07-30T15:22:57;30.50;69.10
23703;DHT22;12030;50.376;8.762;2022-07-30T15:25:23;30.60;70.60
23703;DHT22;12030;50.376;8.762;2022-07-30T15:27:49;30.40;68.00
23703;DHT22;12030;50.376;8.762;2022-07-30T15:30:16;30.20;68.20
23703;DHT22;12030;50.376;8.762;2022-07-30T15:32:41;30.30;69.90
23703;DHT22;12030;50.376;8.762;2022-07-30T15:35:07;30.30;69.70
23703;DHT22;12030;50.376;8.762;2022-07-30T15:37:33;30.20;70.60
23703;DHT22;12030;50.376;8.762;2022-07-30T15:39:58;30.40;71.50
23703;DHT22;12030;50.376;8.762;2022-07-30T15:42:24;30.40;71.40
23703;DHT22;12030;50.376;8.762;2022-07-30T15:44:51;30.50;70.10
23703;DHT22;12030;50.376;8.762;2022-07-30T15:47:17;30.50;70.80
23703;DHT22;12030;50.376;8.762;2022-07-30T15:49:42;30.30;70.30
23703;DHT22;12030;50.376;8.762;2022-07-30T15:52:09;30.30;69.50
23703;DHT22;12030;50.376;8.762;2022-07-30T15:54:34;30.00;67.10
23703;DHT22;12030;50.376;8.762;2022-07-30T15:57:00;30.20;69.90
23703;DHT22;12030;50.376;8.762;2022-07-30T15:59:25;30.30;69.70
23703;DHT22;12030;50.376;8.762;2022-07-30T16:01:51;30.40;67.90
23703;DHT22;12030;50.376;8.762;2022-07-30T16:04:17;30.60;67.90
23703;DHT22;12030;50.376;8.762;2022-07-30T16:06:43;30.20;69.00